LR475 YBBN-YLHI
Flight info
| Callsign | LR475 |
|---|---|
| Flight time | 1h 25m |
| Altitude | 15000 |
| Route | BN J208 LHI |
| Aircraft | SF34/M-SDFGR/S |
Departure
| Time | 2026-05-08 05:25 |
|---|---|
| Airport | Brisbane International Airport (YBBN) |
Arrival
| Time | 2026-05-08 06:51 |
|---|---|
| Airport | Lord Howe Island Airport (YLHI) |
| Time | Latitude | Longitude | Altitude | Speed | Heading |
|---|---|---|---|---|---|
| 2026-05-08 05:04 | -27.38553 | 153.12243 | 13 ft | 0 kts | 239° |
| 2026-05-08 05:15 | -27.38543 | 153.12263 | 13 ft | 4 kts | 239° |
| 2026-05-08 05:15 | -27.38528 | 153.12289 | 13 ft | 4 kts | 231° |
| 2026-05-08 05:15 | -27.38511 | 153.12306 | 13 ft | 4 kts | 178° |
| 2026-05-08 05:15 | -27.38505 | 153.12305 | 13 ft | 1 kts | 117° |
| 2026-05-08 05:16 | -27.38503 | 153.12302 | 13 ft | 0 kts | 117° |
| 2026-05-08 05:19 | -27.38504 | 153.12302 | 13 ft | 1 kts | 117° |
| 2026-05-08 05:19 | -27.38525 | 153.12345 | 13 ft | 11 kts | 129° |
| 2026-05-08 05:19 | -27.38542 | 153.12364 | 13 ft | 4 kts | 130° |
| 2026-05-08 05:19 | -27.38582 | 153.12414 | 13 ft | 12 kts | 172° |
| 2026-05-08 05:20 | -27.38687 | 153.12365 | 13 ft | 22 kts | 207° |
| 2026-05-08 05:20 | -27.38847 | 153.12275 | 15 ft | 29 kts | 210° |
| 2026-05-08 05:20 | -27.39031 | 153.12168 | 13 ft | 28 kts | 208° |
| 2026-05-08 05:20 | -27.39077 | 153.12144 | 13 ft | 8 kts | 202° |
| 2026-05-08 05:21 | -27.39165 | 153.12098 | 15 ft | 20 kts | 205° |
| 2026-05-08 05:21 | -27.39313 | 153.12007 | 14 ft | 28 kts | 204° |
| 2026-05-08 05:21 | -27.39471 | 153.11936 | 14 ft | 21 kts | 157° |
| 2026-05-08 05:21 | -27.39557 | 153.12067 | 15 ft | 20 kts | 117° |
| 2026-05-08 05:22 | -27.39567 | 153.12090 | 15 ft | 0 kts | 116° |
| 2026-05-08 05:24 | -27.39568 | 153.12091 | 15 ft | 1 kts | 116° |
| 2026-05-08 05:24 | -27.39590 | 153.12141 | 15 ft | 13 kts | 116° |
| 2026-05-08 05:24 | -27.39592 | 153.12215 | 17 ft | 12 kts | 28° |
| 2026-05-08 05:24 | -27.39347 | 153.12356 | 15 ft | 69 kts | 27° |
| 2026-05-08 05:25 | -27.38751 | 153.12693 | 17 ft | 121 kts | 27° |
| 2026-05-08 05:25 | -27.37882 | 153.13177 | 217 ft | 150 kts | 25° |
| 2026-05-08 05:25 | -27.36944 | 153.13700 | 816 ft | 146 kts | 25° |
| 2026-05-08 05:25 | -27.36211 | 153.14404 | 1511 ft | 137 kts | 59° |
| 2026-05-08 05:26 | -27.35990 | 153.15410 | 2118 ft | 132 kts | 92° |
| 2026-05-08 05:26 | -27.36256 | 153.16374 | 2652 ft | 130 kts | 126° |
| 2026-05-08 05:26 | -27.36841 | 153.17155 | 3105 ft | 138 kts | 131° |
| 2026-05-08 05:26 | -27.37526 | 153.18064 | 3454 ft | 152 kts | 131° |
| 2026-05-08 05:27 | -27.38166 | 153.18897 | 4366 ft | 129 kts | 130° |
| 2026-05-08 05:27 | -27.38764 | 153.19699 | 4778 ft | 147 kts | 132° |
| 2026-05-08 05:27 | -27.39472 | 153.20600 | 5280 ft | 155 kts | 131° |
| 2026-05-08 05:27 | -27.40170 | 153.21524 | 5913 ft | 156 kts | 131° |
| 2026-05-08 05:28 | -27.40879 | 153.22452 | 6538 ft | 157 kts | 131° |
| 2026-05-08 05:28 | -27.41597 | 153.23390 | 7157 ft | 158 kts | 131° |
| 2026-05-08 05:28 | -27.42333 | 153.24353 | 7650 ft | 170 kts | 131° |
| 2026-05-08 05:28 | -27.43066 | 153.25314 | 8425 ft | 159 kts | 131° |
| 2026-05-08 05:29 | -27.43794 | 153.26269 | 9018 ft | 162 kts | 131° |
| 2026-05-08 05:29 | -27.44531 | 153.27231 | 9606 ft | 163 kts | 131° |
| 2026-05-08 05:29 | -27.45276 | 153.28207 | 10202 ft | 165 kts | 131° |
| 2026-05-08 05:29 | -27.46027 | 153.29192 | 10798 ft | 166 kts | 131° |
| 2026-05-08 05:30 | -27.46786 | 153.30184 | 11380 ft | 168 kts | 131° |
| 2026-05-08 05:30 | -27.47549 | 153.31187 | 11960 ft | 169 kts | 131° |
| 2026-05-08 05:30 | -27.48320 | 153.32197 | 12544 ft | 171 kts | 131° |
| 2026-05-08 05:30 | -27.49100 | 153.33218 | 13114 ft | 172 kts | 131° |
| 2026-05-08 05:31 | -27.49884 | 153.34248 | 13684 ft | 174 kts | 131° |
| 2026-05-08 05:31 | -27.50676 | 153.35286 | 14249 ft | 176 kts | 131° |
| 2026-05-08 05:31 | -27.51477 | 153.36336 | 14797 ft | 179 kts | 131° |
| 2026-05-08 05:31 | -27.52342 | 153.37466 | 14997 ft | 205 kts | 131° |
| 2026-05-08 05:32 | -27.53344 | 153.38778 | 15016 ft | 236 kts | 131° |
| 2026-05-08 05:32 | -27.54470 | 153.40260 | 15020 ft | 261 kts | 131° |
| 2026-05-08 05:32 | -27.55691 | 153.41864 | 15021 ft | 278 kts | 131° |
| 2026-05-08 05:32 | -27.56972 | 153.43548 | 15020 ft | 289 kts | 131° |
| 2026-05-08 05:33 | -27.58301 | 153.45297 | 15018 ft | 296 kts | 131° |
| 2026-05-08 05:33 | -27.59651 | 153.47070 | 15016 ft | 300 kts | 131° |
| 2026-05-08 05:33 | -27.61012 | 153.48863 | 15013 ft | 302 kts | 131° |
| 2026-05-08 05:33 | -27.62380 | 153.50663 | 15011 ft | 303 kts | 131° |
| 2026-05-08 05:34 | -27.63756 | 153.52476 | 15012 ft | 304 kts | 131° |
| 2026-05-08 05:34 | -27.65130 | 153.54286 | 15012 ft | 304 kts | 131° |
| 2026-05-08 05:34 | -27.66507 | 153.56101 | 15012 ft | 304 kts | 131° |
| 2026-05-08 05:34 | -27.67862 | 153.57889 | 15012 ft | 304 kts | 131° |
| 2026-05-08 05:35 | -27.69239 | 153.59704 | 15011 ft | 305 kts | 131° |
| 2026-05-08 05:35 | -27.70617 | 153.61525 | 15011 ft | 305 kts | 131° |
| 2026-05-08 05:35 | -27.71995 | 153.63342 | 15009 ft | 305 kts | 131° |
| 2026-05-08 05:35 | -27.73370 | 153.65160 | 15008 ft | 305 kts | 131° |
| 2026-05-08 05:36 | -27.74747 | 153.66978 | 15010 ft | 305 kts | 131° |
| 2026-05-08 05:36 | -27.76122 | 153.68798 | 15008 ft | 305 kts | 131° |
| 2026-05-08 05:36 | -27.77497 | 153.70615 | 15007 ft | 305 kts | 131° |
| 2026-05-08 05:36 | -27.78874 | 153.72439 | 15009 ft | 305 kts | 131° |
| 2026-05-08 05:37 | -27.80249 | 153.74257 | 15010 ft | 305 kts | 131° |
| 2026-05-08 05:37 | -27.81623 | 153.76078 | 15009 ft | 305 kts | 131° |
| 2026-05-08 05:37 | -27.83000 | 153.77901 | 15008 ft | 305 kts | 131° |
| 2026-05-08 05:37 | -27.84374 | 153.79723 | 15010 ft | 305 kts | 131° |
| 2026-05-08 05:38 | -27.85747 | 153.81543 | 15008 ft | 305 kts | 131° |
| 2026-05-08 05:38 | -27.87121 | 153.83366 | 15009 ft | 305 kts | 131° |
| 2026-05-08 05:38 | -27.88496 | 153.85191 | 15009 ft | 305 kts | 131° |
| 2026-05-08 05:38 | -27.89869 | 153.87014 | 15010 ft | 305 kts | 131° |
| 2026-05-08 05:39 | -27.91242 | 153.88839 | 15008 ft | 305 kts | 131° |
| 2026-05-08 05:39 | -27.92615 | 153.90662 | 15009 ft | 305 kts | 131° |
| 2026-05-08 05:39 | -27.93988 | 153.92488 | 15009 ft | 305 kts | 131° |
| 2026-05-08 05:39 | -27.95360 | 153.94313 | 15009 ft | 305 kts | 131° |
| 2026-05-08 05:40 | -27.96731 | 153.96138 | 15009 ft | 305 kts | 131° |
| 2026-05-08 05:40 | -27.98104 | 153.97964 | 15009 ft | 305 kts | 131° |
| 2026-05-08 05:40 | -27.99478 | 153.99795 | 15010 ft | 305 kts | 131° |
| 2026-05-08 05:40 | -28.00849 | 154.01621 | 15010 ft | 305 kts | 131° |
| 2026-05-08 05:41 | -28.02221 | 154.03451 | 15010 ft | 305 kts | 131° |
| 2026-05-08 05:41 | -28.03591 | 154.05276 | 15010 ft | 305 kts | 130° |
| 2026-05-08 05:41 | -28.04962 | 154.07106 | 15010 ft | 305 kts | 131° |
| 2026-05-08 05:41 | -28.06333 | 154.08935 | 15008 ft | 305 kts | 130° |
| 2026-05-08 05:42 | -28.07686 | 154.10742 | 15008 ft | 305 kts | 131° |
| 2026-05-08 05:42 | -28.09075 | 154.12596 | 15008 ft | 305 kts | 130° |
| 2026-05-08 05:42 | -28.10426 | 154.14405 | 15008 ft | 305 kts | 130° |
| 2026-05-08 05:42 | -28.11797 | 154.16234 | 15008 ft | 305 kts | 130° |
| 2026-05-08 05:43 | -28.13165 | 154.18066 | 15008 ft | 305 kts | 130° |
| 2026-05-08 05:43 | -28.14535 | 154.19898 | 15008 ft | 305 kts | 130° |
| 2026-05-08 05:43 | -28.15902 | 154.21730 | 15008 ft | 305 kts | 130° |
| 2026-05-08 05:43 | -28.17274 | 154.23565 | 15008 ft | 305 kts | 130° |
| 2026-05-08 05:44 | -28.18639 | 154.25396 | 15008 ft | 305 kts | 130° |
| 2026-05-08 05:44 | -28.20008 | 154.27229 | 15008 ft | 305 kts | 130° |
| 2026-05-08 05:44 | -28.21378 | 154.29068 | 15009 ft | 305 kts | 130° |
| 2026-05-08 05:44 | -28.22744 | 154.30899 | 15008 ft | 305 kts | 130° |
| 2026-05-08 05:45 | -28.24111 | 154.32735 | 15009 ft | 305 kts | 130° |
| 2026-05-08 05:45 | -28.25480 | 154.34571 | 15008 ft | 305 kts | 130° |
| 2026-05-08 05:45 | -28.26846 | 154.36409 | 15008 ft | 305 kts | 130° |
| 2026-05-08 05:45 | -28.28214 | 154.38245 | 15008 ft | 305 kts | 130° |
| 2026-05-08 05:46 | -28.29580 | 154.40084 | 15009 ft | 305 kts | 130° |
| 2026-05-08 05:46 | -28.30946 | 154.41918 | 15010 ft | 305 kts | 130° |
| 2026-05-08 05:46 | -28.32311 | 154.43758 | 15009 ft | 305 kts | 130° |
| 2026-05-08 05:46 | -28.33679 | 154.45598 | 15008 ft | 305 kts | 130° |
| 2026-05-08 05:47 | -28.35045 | 154.47438 | 15008 ft | 305 kts | 130° |
| 2026-05-08 05:47 | -28.36411 | 154.49278 | 15008 ft | 305 kts | 130° |
| 2026-05-08 05:47 | -28.37774 | 154.51117 | 15007 ft | 305 kts | 130° |
| 2026-05-08 05:47 | -28.39139 | 154.52956 | 15007 ft | 305 kts | 130° |
| 2026-05-08 05:48 | -28.40504 | 154.54800 | 15007 ft | 305 kts | 130° |
| 2026-05-08 05:48 | -28.41869 | 154.56640 | 15007 ft | 305 kts | 130° |
| 2026-05-08 05:48 | -28.43234 | 154.58485 | 15008 ft | 305 kts | 130° |
| 2026-05-08 05:48 | -28.44596 | 154.60324 | 15009 ft | 305 kts | 130° |
| 2026-05-08 05:49 | -28.45960 | 154.62169 | 15009 ft | 305 kts | 130° |
| 2026-05-08 05:49 | -28.47325 | 154.64013 | 15010 ft | 305 kts | 130° |
| 2026-05-08 05:49 | -28.48687 | 154.65857 | 15010 ft | 305 kts | 130° |
| 2026-05-08 05:49 | -28.50049 | 154.67700 | 15009 ft | 305 kts | 130° |
| 2026-05-08 05:50 | -28.51413 | 154.69546 | 15009 ft | 305 kts | 130° |
| 2026-05-08 05:50 | -28.52775 | 154.71392 | 15008 ft | 305 kts | 130° |
| 2026-05-08 05:50 | -28.54137 | 154.73237 | 15008 ft | 305 kts | 130° |
| 2026-05-08 05:50 | -28.55040 | 154.74462 | 15009 ft | 305 kts | 130° |
| 2026-05-08 05:51 | -28.56401 | 154.76306 | 15009 ft | 305 kts | 130° |
| 2026-05-08 05:51 | -28.57762 | 154.78154 | 15009 ft | 305 kts | 130° |
| 2026-05-08 05:51 | -28.59125 | 154.80003 | 15009 ft | 305 kts | 130° |
| 2026-05-08 05:51 | -28.60484 | 154.81850 | 15009 ft | 305 kts | 130° |
| 2026-05-08 05:52 | -28.61848 | 154.83701 | 15008 ft | 305 kts | 130° |
| 2026-05-08 05:52 | -28.63207 | 154.85551 | 15008 ft | 305 kts | 130° |
| 2026-05-08 05:52 | -28.64568 | 154.87400 | 15009 ft | 305 kts | 130° |
| 2026-05-08 05:52 | -28.65927 | 154.89250 | 15010 ft | 305 kts | 130° |
| 2026-05-08 05:53 | -28.67287 | 154.91100 | 15008 ft | 305 kts | 130° |
| 2026-05-08 05:53 | -28.68646 | 154.92951 | 15008 ft | 305 kts | 130° |
| 2026-05-08 05:53 | -28.70005 | 154.94800 | 15008 ft | 305 kts | 130° |
| 2026-05-08 05:53 | -28.71365 | 154.96656 | 15010 ft | 305 kts | 130° |
| 2026-05-08 05:54 | -28.72723 | 154.98506 | 15009 ft | 305 kts | 130° |
| 2026-05-08 05:54 | -28.74069 | 155.00343 | 15008 ft | 305 kts | 130° |
| 2026-05-08 05:54 | -28.75407 | 155.02168 | 15008 ft | 305 kts | 130° |
| 2026-05-08 05:54 | -28.76766 | 155.04025 | 15007 ft | 305 kts | 130° |
| 2026-05-08 05:55 | -28.78124 | 155.05877 | 15006 ft | 305 kts | 130° |
| 2026-05-08 05:55 | -28.79481 | 155.07734 | 15006 ft | 305 kts | 130° |
| 2026-05-08 05:55 | -28.80837 | 155.09586 | 15006 ft | 305 kts | 130° |
| 2026-05-08 05:55 | -28.82196 | 155.11446 | 15007 ft | 305 kts | 130° |
| 2026-05-08 05:56 | -28.83553 | 155.13301 | 15006 ft | 305 kts | 130° |
| 2026-05-08 05:56 | -28.84909 | 155.15159 | 15006 ft | 305 kts | 130° |
| 2026-05-08 05:56 | -28.86267 | 155.17016 | 15008 ft | 305 kts | 130° |
| 2026-05-08 05:56 | -28.87622 | 155.18876 | 15007 ft | 305 kts | 130° |
| 2026-05-08 05:57 | -28.88977 | 155.20730 | 15007 ft | 305 kts | 130° |
| 2026-05-08 05:57 | -28.90333 | 155.22592 | 15007 ft | 305 kts | 130° |
| 2026-05-08 05:57 | -28.91689 | 155.24450 | 15008 ft | 305 kts | 130° |
| 2026-05-08 05:57 | -28.93042 | 155.26310 | 15008 ft | 305 kts | 130° |
| 2026-05-08 05:58 | -28.94399 | 155.28170 | 15008 ft | 305 kts | 130° |
| 2026-05-08 05:58 | -28.95750 | 155.30029 | 15007 ft | 305 kts | 130° |
| 2026-05-08 05:58 | -28.97107 | 155.31893 | 15007 ft | 305 kts | 130° |
| 2026-05-08 05:58 | -28.98444 | 155.33768 | 15007 ft | 305 kts | 129° |
| 2026-05-08 05:59 | -28.99775 | 155.35652 | 15001 ft | 305 kts | 130° |
| 2026-05-08 05:59 | -29.01123 | 155.37525 | 14991 ft | 305 kts | 130° |
| 2026-05-08 05:59 | -29.02459 | 155.39407 | 14990 ft | 305 kts | 129° |
| 2026-05-08 05:59 | -29.03795 | 155.41285 | 14990 ft | 305 kts | 130° |
| 2026-05-08 06:00 | -29.05118 | 155.43136 | 14991 ft | 305 kts | 129° |
| 2026-05-08 06:00 | -29.06451 | 155.45016 | 14994 ft | 305 kts | 129° |
| 2026-05-08 06:00 | -29.07808 | 155.46920 | 14992 ft | 305 kts | 129° |
| 2026-05-08 06:00 | -29.09126 | 155.48775 | 14989 ft | 305 kts | 129° |
| 2026-05-08 06:01 | -29.10462 | 155.50655 | 14990 ft | 305 kts | 129° |
| 2026-05-08 06:01 | -29.11799 | 155.52538 | 14990 ft | 305 kts | 129° |
| 2026-05-08 06:01 | -29.13135 | 155.54420 | 14992 ft | 305 kts | 129° |
| 2026-05-08 06:01 | -29.14469 | 155.56298 | 14990 ft | 305 kts | 129° |
| 2026-05-08 06:02 | -29.15806 | 155.58184 | 14992 ft | 305 kts | 129° |
| 2026-05-08 06:02 | -29.17141 | 155.60066 | 14990 ft | 305 kts | 129° |
| 2026-05-08 06:02 | -29.18474 | 155.61949 | 14992 ft | 305 kts | 129° |
| 2026-05-08 06:02 | -29.19811 | 155.63834 | 14990 ft | 305 kts | 129° |
| 2026-05-08 06:03 | -29.21143 | 155.65718 | 14991 ft | 305 kts | 129° |
| 2026-05-08 06:03 | -29.22480 | 155.67605 | 14992 ft | 305 kts | 129° |
| 2026-05-08 06:03 | -29.23814 | 155.69492 | 14992 ft | 305 kts | 129° |
| 2026-05-08 06:03 | -29.25147 | 155.71376 | 14990 ft | 305 kts | 129° |
| 2026-05-08 06:04 | -29.26480 | 155.73264 | 14990 ft | 305 kts | 129° |
| 2026-05-08 06:04 | -29.27815 | 155.75151 | 14991 ft | 305 kts | 129° |
| 2026-05-08 06:04 | -29.29145 | 155.77037 | 14991 ft | 305 kts | 129° |
| 2026-05-08 06:04 | -29.30479 | 155.78925 | 14990 ft | 305 kts | 129° |
| 2026-05-08 06:05 | -29.31811 | 155.80815 | 14994 ft | 305 kts | 129° |
| 2026-05-08 06:05 | -29.33143 | 155.82702 | 14993 ft | 305 kts | 129° |
| 2026-05-08 06:05 | -29.34474 | 155.84593 | 14990 ft | 305 kts | 129° |
| 2026-05-08 06:05 | -29.35806 | 155.86481 | 14990 ft | 305 kts | 129° |
| 2026-05-08 06:06 | -29.37137 | 155.88374 | 14990 ft | 305 kts | 129° |
| 2026-05-08 06:06 | -29.38467 | 155.90262 | 14990 ft | 305 kts | 129° |
| 2026-05-08 06:06 | -29.39798 | 155.92155 | 14990 ft | 305 kts | 129° |
| 2026-05-08 06:06 | -29.41130 | 155.94048 | 14990 ft | 305 kts | 129° |
| 2026-05-08 06:07 | -29.42460 | 155.95941 | 14993 ft | 305 kts | 129° |
| 2026-05-08 06:07 | -29.43788 | 155.97831 | 14990 ft | 305 kts | 129° |
| 2026-05-08 06:07 | -29.45119 | 155.99727 | 14990 ft | 305 kts | 129° |
| 2026-05-08 06:07 | -29.46446 | 156.01618 | 14990 ft | 305 kts | 129° |
| 2026-05-08 06:08 | -29.47776 | 156.03513 | 14991 ft | 305 kts | 129° |
| 2026-05-08 06:08 | -29.49104 | 156.05408 | 14993 ft | 305 kts | 129° |
| 2026-05-08 06:08 | -29.50434 | 156.07304 | 14990 ft | 305 kts | 129° |
| 2026-05-08 06:08 | -29.51761 | 156.09200 | 14990 ft | 305 kts | 129° |
| 2026-05-08 06:09 | -29.53091 | 156.11097 | 14990 ft | 305 kts | 129° |
| 2026-05-08 06:09 | -29.54418 | 156.12995 | 14993 ft | 305 kts | 129° |
| 2026-05-08 06:09 | -29.55746 | 156.14892 | 14990 ft | 305 kts | 129° |
| 2026-05-08 06:09 | -29.57071 | 156.16788 | 14992 ft | 305 kts | 129° |
| 2026-05-08 06:10 | -29.58399 | 156.18686 | 14993 ft | 305 kts | 129° |
| 2026-05-08 06:10 | -29.59726 | 156.20588 | 14990 ft | 305 kts | 129° |
| 2026-05-08 06:10 | -29.61054 | 156.22487 | 14990 ft | 305 kts | 129° |
| 2026-05-08 06:10 | -29.62377 | 156.24386 | 14994 ft | 305 kts | 129° |
| 2026-05-08 06:11 | -29.63705 | 156.26286 | 14990 ft | 305 kts | 129° |
| 2026-05-08 06:11 | -29.65028 | 156.28186 | 14994 ft | 305 kts | 129° |
| 2026-05-08 06:11 | -29.66355 | 156.30088 | 14990 ft | 305 kts | 129° |
| 2026-05-08 06:11 | -29.67679 | 156.31991 | 14993 ft | 305 kts | 129° |
| 2026-05-08 06:12 | -29.69005 | 156.33893 | 14990 ft | 305 kts | 129° |
| 2026-05-08 06:12 | -29.70328 | 156.35795 | 14991 ft | 305 kts | 129° |
| 2026-05-08 06:12 | -29.71654 | 156.37700 | 14991 ft | 305 kts | 129° |
| 2026-05-08 06:12 | -29.72979 | 156.39606 | 14991 ft | 305 kts | 129° |
| 2026-05-08 06:13 | -29.74303 | 156.41511 | 14993 ft | 305 kts | 129° |
| 2026-05-08 06:13 | -29.75624 | 156.43413 | 14991 ft | 305 kts | 129° |
| 2026-05-08 06:13 | -29.76949 | 156.45319 | 14991 ft | 305 kts | 129° |
| 2026-05-08 06:13 | -29.78270 | 156.47226 | 14992 ft | 305 kts | 129° |
| 2026-05-08 06:14 | -29.79594 | 156.49132 | 14991 ft | 305 kts | 129° |
| 2026-05-08 06:14 | -29.80916 | 156.51040 | 14991 ft | 305 kts | 129° |
| 2026-05-08 06:14 | -29.82239 | 156.52948 | 14991 ft | 305 kts | 129° |
| 2026-05-08 06:14 | -29.83561 | 156.54858 | 14991 ft | 305 kts | 129° |
| 2026-05-08 06:15 | -29.84883 | 156.56765 | 14995 ft | 305 kts | 129° |
| 2026-05-08 06:15 | -29.86204 | 156.58675 | 14991 ft | 305 kts | 129° |
| 2026-05-08 06:15 | -29.87525 | 156.60585 | 14994 ft | 305 kts | 129° |
| 2026-05-08 06:15 | -29.88846 | 156.62496 | 14991 ft | 305 kts | 129° |
| 2026-05-08 06:16 | -29.90148 | 156.64379 | 14991 ft | 305 kts | 129° |
| 2026-05-08 06:16 | -29.91470 | 156.66293 | 14991 ft | 305 kts | 129° |
| 2026-05-08 06:16 | -29.92806 | 156.68228 | 14991 ft | 305 kts | 129° |
| 2026-05-08 06:16 | -29.94126 | 156.70141 | 14991 ft | 305 kts | 129° |
| 2026-05-08 06:17 | -29.96748 | 156.73942 | 14991 ft | 305 kts | 129° |
| 2026-05-08 06:17 | -29.98066 | 156.75854 | 14991 ft | 305 kts | 129° |
| 2026-05-08 06:17 | -29.99383 | 156.77768 | 14991 ft | 305 kts | 129° |
| 2026-05-08 06:18 | -30.00704 | 156.79685 | 14991 ft | 305 kts | 129° |
| 2026-05-08 06:18 | -30.02020 | 156.81598 | 14991 ft | 305 kts | 129° |
| 2026-05-08 06:18 | -30.03338 | 156.83514 | 14991 ft | 305 kts | 129° |
| 2026-05-08 06:18 | -30.04654 | 156.85429 | 14992 ft | 305 kts | 129° |
| 2026-05-08 06:19 | -30.05972 | 156.87346 | 14991 ft | 305 kts | 129° |
| 2026-05-08 06:19 | -30.07287 | 156.89262 | 14991 ft | 305 kts | 129° |
| 2026-05-08 06:19 | -30.08603 | 156.91177 | 14993 ft | 305 kts | 129° |
| 2026-05-08 06:19 | -30.09921 | 156.93100 | 14991 ft | 305 kts | 129° |
| 2026-05-08 06:20 | -30.11235 | 156.95015 | 14991 ft | 305 kts | 129° |
| 2026-05-08 06:20 | -30.12552 | 156.96936 | 14991 ft | 305 kts | 129° |
| 2026-05-08 06:20 | -30.13868 | 156.98856 | 14991 ft | 305 kts | 129° |
| 2026-05-08 06:20 | -30.15181 | 157.00774 | 14991 ft | 305 kts | 129° |
| 2026-05-08 06:21 | -30.16496 | 157.02694 | 14993 ft | 305 kts | 129° |
| 2026-05-08 06:21 | -30.17811 | 157.04615 | 14991 ft | 305 kts | 129° |
| 2026-05-08 06:21 | -30.19126 | 157.06539 | 14996 ft | 305 kts | 129° |
| 2026-05-08 06:21 | -30.20440 | 157.08461 | 14991 ft | 305 kts | 129° |
| 2026-05-08 06:22 | -30.21753 | 157.10383 | 14995 ft | 305 kts | 129° |
| 2026-05-08 06:22 | -30.23066 | 157.12305 | 14991 ft | 305 kts | 129° |
| 2026-05-08 06:22 | -30.24379 | 157.14230 | 14993 ft | 305 kts | 129° |
| 2026-05-08 06:22 | -30.25692 | 157.16153 | 14991 ft | 305 kts | 129° |
| 2026-05-08 06:23 | -30.27006 | 157.18081 | 14992 ft | 305 kts | 129° |
| 2026-05-08 06:23 | -30.28317 | 157.20004 | 14991 ft | 305 kts | 129° |
| 2026-05-08 06:23 | -30.29631 | 157.21933 | 14991 ft | 305 kts | 129° |
| 2026-05-08 06:23 | -30.30943 | 157.23859 | 14994 ft | 305 kts | 128° |
| 2026-05-08 06:24 | -30.32255 | 157.25788 | 14991 ft | 305 kts | 129° |
| 2026-05-08 06:24 | -30.33567 | 157.27714 | 14991 ft | 305 kts | 128° |
| 2026-05-08 06:24 | -30.34877 | 157.29644 | 14993 ft | 305 kts | 129° |
| 2026-05-08 06:24 | -30.36188 | 157.31571 | 14996 ft | 305 kts | 128° |
| 2026-05-08 06:25 | -30.37498 | 157.33501 | 14992 ft | 305 kts | 128° |
| 2026-05-08 06:25 | -30.38811 | 157.35432 | 14992 ft | 305 kts | 128° |
| 2026-05-08 06:25 | -30.40116 | 157.37358 | 14993 ft | 305 kts | 128° |
| 2026-05-08 06:25 | -30.41427 | 157.39288 | 14995 ft | 305 kts | 128° |
| 2026-05-08 06:26 | -30.42736 | 157.41221 | 14992 ft | 305 kts | 128° |
| 2026-05-08 06:26 | -30.44045 | 157.43152 | 14992 ft | 305 kts | 128° |
| 2026-05-08 06:26 | -30.45354 | 157.45086 | 14991 ft | 305 kts | 128° |
| 2026-05-08 06:26 | -30.46664 | 157.47018 | 14993 ft | 305 kts | 128° |
| 2026-05-08 06:27 | -30.47969 | 157.48953 | 14991 ft | 305 kts | 128° |
| 2026-05-08 06:27 | -30.49263 | 157.50861 | 14991 ft | 305 kts | 128° |
| 2026-05-08 06:27 | -30.50569 | 157.52794 | 14992 ft | 305 kts | 128° |
| 2026-05-08 06:27 | -30.51877 | 157.54730 | 14991 ft | 305 kts | 128° |
| 2026-05-08 06:28 | -30.53183 | 157.56662 | 14992 ft | 305 kts | 128° |
| 2026-05-08 06:28 | -30.54492 | 157.58602 | 14992 ft | 305 kts | 128° |
| 2026-05-08 06:28 | -30.55799 | 157.60539 | 14991 ft | 305 kts | 128° |
| 2026-05-08 06:28 | -30.57105 | 157.62476 | 14992 ft | 305 kts | 128° |
| 2026-05-08 06:29 | -30.58412 | 157.64413 | 14992 ft | 305 kts | 128° |
| 2026-05-08 06:29 | -30.59717 | 157.66353 | 14992 ft | 305 kts | 128° |
| 2026-05-08 06:29 | -30.61022 | 157.68290 | 14995 ft | 305 kts | 128° |
| 2026-05-08 06:29 | -30.62326 | 157.70228 | 14994 ft | 305 kts | 128° |
| 2026-05-08 06:30 | -30.63632 | 157.72167 | 14992 ft | 305 kts | 128° |
| 2026-05-08 06:30 | -30.64937 | 157.74111 | 14992 ft | 305 kts | 128° |
| 2026-05-08 06:30 | -30.66240 | 157.76049 | 14992 ft | 305 kts | 128° |
| 2026-05-08 06:30 | -30.67544 | 157.77991 | 14994 ft | 305 kts | 128° |
| 2026-05-08 06:31 | -30.68847 | 157.79931 | 14992 ft | 305 kts | 128° |
| 2026-05-08 06:31 | -30.70151 | 157.81875 | 14992 ft | 305 kts | 128° |
| 2026-05-08 06:31 | -30.71456 | 157.83818 | 14996 ft | 305 kts | 128° |
| 2026-05-08 06:31 | -30.72758 | 157.85763 | 14993 ft | 305 kts | 128° |
| 2026-05-08 06:32 | -30.74062 | 157.87706 | 14992 ft | 305 kts | 128° |
| 2026-05-08 06:32 | -30.75362 | 157.89650 | 14992 ft | 305 kts | 128° |
| 2026-05-08 06:32 | -30.76665 | 157.91594 | 14992 ft | 305 kts | 128° |
| 2026-05-08 06:32 | -30.77967 | 157.93542 | 14992 ft | 305 kts | 128° |
| 2026-05-08 06:33 | -30.79269 | 157.95487 | 14992 ft | 305 kts | 128° |
| 2026-05-08 06:33 | -30.80569 | 157.97434 | 14992 ft | 305 kts | 128° |
| 2026-05-08 06:33 | -30.81871 | 157.99381 | 14992 ft | 305 kts | 128° |
| 2026-05-08 06:33 | -30.83170 | 158.01328 | 14992 ft | 305 kts | 128° |
| 2026-05-08 06:34 | -30.84471 | 158.03276 | 14992 ft | 305 kts | 128° |
| 2026-05-08 06:34 | -30.85772 | 158.05226 | 14992 ft | 305 kts | 128° |
| 2026-05-08 06:34 | -30.87071 | 158.07174 | 14992 ft | 305 kts | 128° |
| 2026-05-08 06:34 | -30.88373 | 158.09124 | 14873 ft | 308 kts | 128° |
| 2026-05-08 06:35 | -30.89685 | 158.11099 | 14499 ft | 308 kts | 128° |
| 2026-05-08 06:35 | -30.90995 | 158.13065 | 14125 ft | 307 kts | 128° |
| 2026-05-08 06:35 | -30.92296 | 158.15022 | 13751 ft | 305 kts | 128° |
| 2026-05-08 06:35 | -30.93593 | 158.16971 | 13377 ft | 303 kts | 128° |
| 2026-05-08 06:36 | -30.94881 | 158.18909 | 13003 ft | 302 kts | 128° |
| 2026-05-08 06:36 | -30.96163 | 158.20837 | 12628 ft | 300 kts | 128° |
| 2026-05-08 06:36 | -30.97007 | 158.22107 | 12380 ft | 299 kts | 128° |
| 2026-05-08 06:36 | -30.98273 | 158.24015 | 12006 ft | 297 kts | 128° |
| 2026-05-08 06:37 | -30.99535 | 158.25916 | 11631 ft | 295 kts | 128° |
| 2026-05-08 06:37 | -31.01208 | 158.28439 | 11130 ft | 293 kts | 128° |
| 2026-05-08 06:37 | -31.02032 | 158.29682 | 10881 ft | 292 kts | 128° |
| 2026-05-08 06:37 | -31.03267 | 158.31548 | 10507 ft | 290 kts | 128° |
| 2026-05-08 06:38 | -31.04500 | 158.33407 | 10131 ft | 289 kts | 128° |
| 2026-05-08 06:38 | -31.05721 | 158.35254 | 9756 ft | 287 kts | 128° |
| 2026-05-08 06:38 | -31.06937 | 158.37089 | 9382 ft | 285 kts | 128° |
| 2026-05-08 06:38 | -31.08145 | 158.38917 | 9006 ft | 284 kts | 128° |
| 2026-05-08 06:39 | -31.09345 | 158.40732 | 8634 ft | 282 kts | 128° |
| 2026-05-08 06:39 | -31.10539 | 158.42539 | 8256 ft | 280 kts | 128° |
| 2026-05-08 06:39 | -31.11727 | 158.44338 | 7881 ft | 279 kts | 128° |
| 2026-05-08 06:39 | -31.12906 | 158.46124 | 7506 ft | 277 kts | 128° |
| 2026-05-08 06:40 | -31.14079 | 158.47902 | 7131 ft | 276 kts | 128° |
| 2026-05-08 06:40 | -31.15246 | 158.49671 | 6755 ft | 274 kts | 128° |
| 2026-05-08 06:40 | -31.16405 | 158.51429 | 6382 ft | 272 kts | 128° |
| 2026-05-08 06:40 | -31.17558 | 158.53178 | 6002 ft | 271 kts | 128° |
| 2026-05-08 06:41 | -31.18702 | 158.54915 | 5630 ft | 269 kts | 128° |
| 2026-05-08 06:41 | -31.19841 | 158.56645 | 5256 ft | 268 kts | 128° |
| 2026-05-08 06:41 | -31.20973 | 158.58366 | 4879 ft | 266 kts | 128° |
| 2026-05-08 06:41 | -31.22099 | 158.60078 | 4504 ft | 265 kts | 128° |
| 2026-05-08 06:42 | -31.23215 | 158.61774 | 4202 ft | 261 kts | 128° |
| 2026-05-08 06:42 | -31.24306 | 158.63436 | 4122 ft | 254 kts | 128° |
| 2026-05-08 06:42 | -31.25372 | 158.65058 | 4104 ft | 250 kts | 128° |
| 2026-05-08 06:42 | -31.26424 | 158.66661 | 4100 ft | 248 kts | 128° |
| 2026-05-08 06:43 | -31.27474 | 158.68259 | 4096 ft | 247 kts | 128° |
| 2026-05-08 06:43 | -31.28520 | 158.69853 | 4094 ft | 247 kts | 128° |
| 2026-05-08 06:43 | -31.29566 | 158.71447 | 4091 ft | 247 kts | 128° |
| 2026-05-08 06:43 | -31.30610 | 158.73041 | 4092 ft | 247 kts | 128° |
| 2026-05-08 06:44 | -31.31655 | 158.74636 | 4091 ft | 247 kts | 128° |
| 2026-05-08 06:44 | -31.32700 | 158.76230 | 4093 ft | 247 kts | 128° |
| 2026-05-08 06:44 | -31.33729 | 158.77803 | 4091 ft | 247 kts | 128° |
| 2026-05-08 06:44 | -31.34775 | 158.79400 | 4092 ft | 247 kts | 128° |
| 2026-05-08 06:45 | -31.35817 | 158.80994 | 4092 ft | 247 kts | 128° |
| 2026-05-08 06:45 | -31.36862 | 158.82589 | 4091 ft | 247 kts | 128° |
| 2026-05-08 06:45 | -31.38034 | 158.84018 | 4069 ft | 245 kts | 147° |
| 2026-05-08 06:45 | -31.39662 | 158.84642 | 3816 ft | 250 kts | 178° |
| 2026-05-08 06:46 | -31.41361 | 158.84344 | 3673 ft | 245 kts | 191° |
| 2026-05-08 06:46 | -31.43054 | 158.84397 | 3631 ft | 245 kts | 169° |
| 2026-05-08 06:46 | -31.44696 | 158.84912 | 3606 ft | 244 kts | 166° |
| 2026-05-08 06:46 | -31.46342 | 158.85348 | 3608 ft | 242 kts | 171° |
| 2026-05-08 06:47 | -31.48007 | 158.85658 | 3609 ft | 242 kts | 171° |
| 2026-05-08 06:47 | -31.49662 | 158.86039 | 3607 ft | 241 kts | 166° |
| 2026-05-08 06:47 | -31.51091 | 158.87014 | 3602 ft | 236 kts | 134° |
| 2026-05-08 06:47 | -31.51871 | 158.88689 | 3312 ft | 240 kts | 103° |
| 2026-05-08 06:48 | -31.51796 | 158.90623 | 2935 ft | 241 kts | 71° |
| 2026-05-08 06:48 | -31.51128 | 158.92399 | 2562 ft | 238 kts | 74° |
| 2026-05-08 06:48 | -31.51128 | 158.94218 | 2187 ft | 211 kts | 107° |
| 2026-05-08 06:48 | -31.51570 | 158.95714 | 2037 ft | 184 kts | 105° |
| 2026-05-08 06:49 | -31.51821 | 158.97126 | 2004 ft | 170 kts | 99° |
| 2026-05-08 06:49 | -31.52020 | 158.98471 | 1852 ft | 168 kts | 100° |
| 2026-05-08 06:49 | -31.52212 | 158.99836 | 1587 ft | 171 kts | 99° |
| 2026-05-08 06:49 | -31.52381 | 159.01211 | 1327 ft | 171 kts | 99° |
| 2026-05-08 06:50 | -31.52551 | 159.02596 | 1016 ft | 171 kts | 98° |
| 2026-05-08 06:50 | -31.52697 | 159.03879 | 664 ft | 149 kts | 98° |
| 2026-05-08 06:50 | -31.52870 | 159.05085 | 529 ft | 155 kts | 103° |
| 2026-05-08 06:50 | -31.53245 | 159.06169 | 274 ft | 135 kts | 121° |
| 2026-05-08 06:51 | -31.53644 | 159.07097 | 62 ft | 125 kts | 116° |
| 2026-05-08 06:51 | -31.53949 | 159.07874 | 24 ft | 49 kts | 114° |
| 2026-05-08 06:51 | -31.54034 | 159.08050 | 27 ft | 4 kts | 91° |
| 2026-05-08 06:51 | -31.54006 | 159.08021 | 24 ft | 15 kts | 297° |
| 2026-05-08 06:52 | -31.53957 | 159.07885 | 24 ft | 16 kts | 269° |
| 2026-05-08 06:52 | -31.53992 | 159.07852 | 26 ft | 0 kts | 206° |
| 2026-05-08 06:52 | -31.54005 | 159.07844 | 27 ft | 5 kts | 214° |
| 2026-05-08 06:52 | -31.54018 | 159.07817 | 27 ft | 4 kts | 214° |
| 2026-05-08 06:53 | -31.54029 | 159.07822 | 27 ft | 0 kts | 130° |
| 2026-05-08 06:53 | -31.54030 | 159.07823 | 27 ft | 0 kts | 129° |